ULN weather

Chinggis Khaan International Airport
Ulan Bator, Ulanbaatar, Mongolia

Public forecast

Using degrees Celsius for public forecast. Weather courtesy of forecast.io.

METAR (pilot weather report)

Retrieved 2019/03/20 13:30 UTC (0 seconds ago):

ZMUB 201330Z VRB01MPS CAVOK M12/M18 Q1022 NOSIG RMK QFE658.7 54

TAF (pilot weather forecast)

Forecast is more than 12 hours old.

Retrieved 2019/03/18 12:00 UTC (2 days ago):

TAF ZMUB 181100Z 1812/1918 35006MPS 9999 SCT033 BKN100 TNM10/1823Z TXM03/1907Z BECMG 1813/1815 35008MPS TEMPO 1814/1906 6000 -SN BLSN SCT030 BKN080 BECMG 1902/1904 35009MPS BECMG 1910/1912 35005MPS